createdAt,value
2018-03-22T00:00:15.897Z,6.90
2018-03-22T00:02:44.069Z,6.90
2018-03-22T00:05:12.998Z,7.23
2018-03-22T00:07:45.016Z,6.43
2018-03-22T00:10:13.947Z,6.70
2018-03-22T00:12:42.139Z,9.13
2018-03-22T00:15:10.336Z,9.50
2018-03-22T00:17:38.588Z,10.40
2018-03-22T00:20:06.793Z,14.00
2018-03-22T00:22:46.861Z,9.80
2018-03-22T00:25:15.030Z,11.23
2018-03-22T00:27:45.952Z,7.80
2018-03-22T00:30:14.094Z,8.33
2018-03-22T00:32:42.510Z,7.03
2018-03-22T00:35:10.701Z,9.40
2018-03-22T00:37:38.843Z,5.40
2018-03-22T00:40:06.998Z,4.17
2018-03-22T00:42:35.133Z,4.03
2018-03-22T00:45:03.299Z,4.97
2018-03-22T00:47:38.764Z,5.17
2018-03-22T00:50:06.926Z,7.50
2018-03-22T00:52:35.061Z,4.03
2018-03-22T00:55:04.002Z,3.87
2018-03-22T00:57:35.790Z,3.87
2018-03-22T01:00:03.960Z,4.03
2018-03-22T01:02:32.098Z,4.03
2018-03-22T01:05:00.283Z,6.07
2018-03-22T01:07:29.391Z,6.23
2018-03-22T01:09:57.533Z,5.30
2018-03-22T01:12:25.690Z,4.20
2018-03-22T01:14:54.598Z,4.73
2018-03-22T01:17:23.730Z,5.37
2018-03-22T01:19:51.873Z,4.47
2018-03-22T01:22:20.042Z,8.27
2018-03-22T01:24:48.197Z,6.57
2018-03-22T01:27:17.158Z,4.40
2018-03-22T01:29:45.310Z,4.23
2018-03-22T01:32:13.475Z,4.77
2018-03-22T01:34:41.627Z,5.93
2018-03-22T01:37:21.298Z,5.20
2018-03-22T01:39:49.437Z,5.13
2018-03-22T01:42:17.594Z,3.93
2018-03-22T01:44:46.504Z,6.23
2018-03-22T01:47:14.666Z,6.77
2018-03-22T01:49:43.570Z,4.27
2018-03-22T01:52:11.730Z,4.90
2018-03-22T01:54:39.923Z,4.37
2018-03-22T01:57:24.996Z,4.63
2018-03-22T01:59:53.199Z,4.67
2018-03-22T02:02:21.474Z,5.63
2018-03-22T02:04:49.630Z,4.30
2018-03-22T02:07:21.830Z,3.40
2018-03-22T02:09:50.024Z,3.83
2018-03-22T02:12:18.947Z,4.20
2018-03-22T02:14:47.113Z,3.70
2018-03-22T02:17:15.259Z,4.23
2018-03-22T02:19:44.234Z,4.30
2018-03-22T02:22:12.391Z,5.07
2018-03-22T02:24:40.572Z,6.13
2018-03-22T02:27:16.696Z,3.67
2018-03-22T02:29:44.980Z,5.27
2018-03-22T02:32:13.178Z,4.03
2018-03-22T02:34:41.396Z,3.33
2018-03-22T02:37:09.608Z,3.33
2018-03-22T02:39:37.863Z,2.93
2018-03-22T02:42:06.126Z,2.70
2018-03-22T02:44:35.076Z,5.20
2018-03-22T02:47:03.302Z,4.10
2018-03-22T02:49:31.497Z,3.73
2018-03-22T02:51:59.772Z,4.40
2018-03-22T02:54:28.012Z,3.77
2018-03-22T02:57:19.472Z,3.93
2018-03-22T02:59:47.755Z,4.30
2018-03-22T03:02:16.023Z,2.47
2018-03-22T03:04:44.223Z,4.27
2018-03-22T03:07:13.399Z,3.27
2018-03-22T03:09:41.652Z,2.60
2018-03-22T03:12:09.858Z,4.67
2018-03-22T03:14:38.049Z,3.77
2018-03-22T03:17:11.898Z,3.17
2018-03-22T03:19:40.097Z,3.17
2018-03-22T03:22:08.296Z,4.37
2018-03-22T03:24:36.464Z,5.27
2018-03-22T03:27:09.448Z,3.23
2018-03-22T03:29:37.707Z,2.47
2018-03-22T03:32:05.974Z,4.57
2018-03-22T03:34:34.997Z,3.27
2018-03-22T03:37:04.160Z,7.57
2018-03-22T03:39:32.428Z,5.07
2018-03-22T03:42:00.636Z,4.40
2018-03-22T03:44:28.858Z,4.07
2018-03-22T03:47:19.495Z,3.33
2018-03-22T03:49:47.779Z,4.47
2018-03-22T03:52:15.976Z,3.10
2018-03-22T03:54:44.217Z,3.13
2018-03-22T03:57:12.370Z,3.50
2018-03-22T03:59:40.561Z,4.03
2018-03-22T04:02:08.741Z,3.23
2018-03-22T04:04:37.020Z,4.23
2018-03-22T04:07:13.014Z,3.27
2018-03-22T04:09:41.268Z,3.13
2018-03-22T04:12:09.455Z,9.77
2018-03-22T04:14:37.695Z,12.47
2018-03-22T04:17:16.596Z,9.07
2018-03-22T04:19:44.758Z,9.43
2018-03-22T04:22:13.043Z,5.17
2018-03-22T04:24:41.255Z,3.40
2018-03-22T04:27:09.500Z,4.50
2018-03-22T04:29:37.703Z,3.93
2018-03-22T04:32:05.926Z,4.33
2018-03-22T04:34:34.884Z,6.57
2018-03-22T04:37:07.650Z,6.70
2018-03-22T04:39:35.925Z,3.30
2018-03-22T04:42:04.189Z,5.00
2018-03-22T04:44:32.400Z,3.07
2018-03-22T04:47:16.051Z,3.23
2018-03-22T04:49:45.039Z,2.40
2018-03-22T04:52:13.320Z,4.40
2018-03-22T04:54:42.320Z,3.37
2018-03-22T04:57:11.347Z,3.93
2018-03-22T04:59:39.556Z,3.10
2018-03-22T05:02:07.771Z,2.83
2018-03-22T05:04:36.736Z,3.10
2018-03-22T05:07:09.999Z,3.07
2018-03-22T05:09:38.225Z,4.20
2018-03-22T05:12:07.244Z,3.17
2018-03-22T05:14:35.459Z,4.63
2018-03-22T05:17:35.087Z,3.73
2018-03-22T05:20:03.260Z,2.97
2018-03-22T05:22:31.445Z,2.73
2018-03-22T05:24:59.657Z,4.73
2018-03-22T05:27:28.781Z,4.67
2018-03-22T05:29:57.114Z,2.80
2018-03-22T05:32:25.281Z,3.67
2018-03-22T05:34:54.232Z,2.30
2018-03-22T05:37:22.483Z,3.33
2018-03-22T05:39:50.695Z,4.03
2018-03-22T05:42:18.844Z,5.53
2018-03-22T05:44:47.101Z,5.37
2018-03-22T05:47:32.781Z,3.00
2018-03-22T05:50:00.984Z,2.83
2018-03-22T05:52:30.144Z,5.30
2018-03-22T05:54:58.423Z,3.50
2018-03-22T05:57:41.051Z,4.27
2018-03-22T06:00:09.337Z,2.60
2018-03-22T06:02:37.578Z,4.57
2018-03-22T06:05:05.870Z,4.07
2018-03-22T06:07:39.221Z,5.00
2018-03-22T06:10:08.226Z,6.90
2018-03-22T06:12:37.279Z,4.37
2018-03-22T06:15:05.523Z,4.53
2018-03-22T06:17:39.365Z,3.20
2018-03-22T06:20:07.651Z,2.77
2018-03-22T06:22:35.880Z,3.57
2018-03-22T06:25:04.091Z,3.97
2018-03-22T06:27:32.334Z,5.00
2018-03-22T06:30:00.556Z,3.93
2018-03-22T06:32:29.565Z,6.93
2018-03-22T06:34:58.577Z,7.70
2018-03-22T06:37:30.425Z,8.83
2018-03-22T06:39:58.629Z,7.33
2018-03-22T06:42:26.866Z,4.90
2018-03-22T06:44:55.851Z,3.57
2018-03-22T06:47:25.819Z,9.47
2018-03-22T06:49:54.080Z,7.10
2018-03-22T06:52:22.353Z,6.80
2018-03-22T06:54:50.618Z,6.23
2018-03-22T06:57:26.070Z,6.03
2018-03-22T06:59:54.329Z,8.33
2018-03-22T07:02:23.397Z,10.93
2018-03-22T07:04:51.703Z,6.10
2018-03-22T07:07:28.488Z,8.33
2018-03-22T07:09:56.725Z,8.17
2018-03-22T07:12:24.985Z,7.27
2018-03-22T07:14:53.224Z,7.47
2018-03-22T07:17:25.552Z,9.03
2018-03-22T07:19:54.725Z,7.77
2018-03-22T07:22:22.940Z,8.43
2018-03-22T07:24:52.651Z,7.43
2018-03-22T07:27:30.186Z,7.77
2018-03-22T07:30:00.839Z,9.27
2018-03-22T07:32:30.391Z,9.53
2018-03-22T07:34:59.253Z,7.37
2018-03-22T07:37:33.850Z,15.07
2018-03-22T07:40:02.172Z,11.47
2018-03-22T07:42:30.381Z,9.87
2018-03-22T07:44:58.586Z,8.23
2018-03-22T07:47:29.092Z,8.17
2018-03-22T07:49:58.224Z,6.83
2018-03-22T07:52:29.115Z,5.23
2018-03-22T07:54:57.328Z,7.00
2018-03-22T07:57:30.465Z,7.17
2018-03-22T08:00:00.015Z,4.77
2018-03-22T08:02:30.123Z,5.40
2018-03-22T08:04:58.337Z,6.13
2018-03-22T08:07:28.276Z,4.77
2018-03-22T08:09:57.343Z,5.37
2018-03-22T08:12:26.438Z,4.60
2018-03-22T08:14:56.072Z,5.87
2018-03-22T08:17:25.312Z,5.37
2018-03-22T08:19:53.688Z,5.63
2018-03-22T08:27:59.666Z,4.33
2018-03-22T08:30:27.823Z,7.43
2018-03-22T08:32:55.987Z,4.93
2018-03-22T08:35:24.119Z,6.80
2018-03-22T08:37:52.334Z,3.70
2018-03-22T08:40:20.474Z,3.83
2018-03-22T08:42:48.606Z,3.70
2018-03-22T08:45:16.772Z,4.53
2018-03-22T08:47:53.137Z,4.37
2018-03-22T08:50:21.307Z,4.70
2018-03-22T08:52:49.446Z,4.10
2018-03-22T08:55:17.630Z,4.07
2018-03-22T08:57:46.741Z,4.37
2018-03-22T09:00:14.909Z,4.67
2018-03-22T09:02:43.077Z,6.47
2018-03-22T09:05:11.255Z,4.70
2018-03-22T09:07:43.923Z,4.50
2018-03-22T09:10:12.142Z,6.23
2018-03-22T09:12:40.332Z,4.13
2018-03-22T09:15:08.522Z,4.80
2018-03-22T09:17:44.226Z,7.20
2018-03-22T09:20:12.399Z,5.30
2018-03-22T09:22:40.695Z,5.20
2018-03-22T09:25:08.960Z,6.90
2018-03-22T09:27:38.179Z,5.77
2018-03-22T09:30:06.419Z,6.13
2018-03-22T09:32:34.659Z,4.30
2018-03-22T09:35:02.828Z,6.63
2018-03-22T09:37:32.799Z,3.60
2018-03-22T09:40:00.979Z,4.70
2018-03-22T09:42:29.203Z,5.40
2018-03-22T09:44:58.210Z,5.47
2018-03-22T09:47:34.171Z,3.67
2018-03-22T09:50:02.323Z,4.43
2018-03-22T09:52:30.502Z,4.27
2018-03-22T09:54:58.702Z,6.07
2018-03-22T09:57:28.867Z,3.27
2018-03-22T09:59:57.875Z,5.20
2018-03-22T10:02:26.830Z,4.60
2018-03-22T10:04:55.083Z,4.90
2018-03-22T10:07:26.678Z,4.50
2018-03-22T10:09:54.887Z,4.90
2018-03-22T10:12:23.058Z,5.50
2018-03-22T10:14:51.272Z,5.10
2018-03-22T10:17:19.597Z,7.30
2018-03-22T10:19:47.765Z,4.73
2018-03-22T10:22:16.666Z,4.93
2018-03-22T10:24:45.570Z,4.20
2018-03-22T10:27:34.534Z,8.17
2018-03-22T10:30:02.682Z,5.37
2018-03-22T10:32:31.596Z,6.70
2018-03-22T10:34:59.745Z,8.03
2018-03-22T10:37:46.259Z,5.47
2018-03-22T10:40:15.184Z,5.07
2018-03-22T10:42:43.314Z,6.83
2018-03-22T10:45:12.250Z,6.20
2018-03-22T10:47:40.396Z,8.33
2018-03-22T10:50:08.517Z,5.47
2018-03-22T10:52:36.663Z,6.87
2018-03-22T10:55:04.822Z,9.67
2018-03-22T10:57:33.020Z,7.43
2018-03-22T11:00:01.176Z,6.20
2018-03-22T11:02:34.950Z,11.27
2018-03-22T11:05:03.879Z,7.80
2018-03-22T11:07:33.007Z,12.43
2018-03-22T11:10:01.166Z,9.77
2018-03-22T11:12:29.334Z,10.43
2018-03-22T11:14:57.500Z,10.60
2018-03-22T11:17:33.482Z,9.03
2018-03-22T11:20:01.639Z,16.10
2018-03-22T11:22:29.846Z,14.87
2018-03-22T11:24:57.984Z,16.27
2018-03-22T11:27:29.768Z,16.80
2018-03-22T11:29:57.902Z,19.57
2018-03-22T11:32:26.065Z,15.30
2018-03-22T11:34:54.201Z,16.50
2018-03-22T11:37:22.418Z,19.57
2018-03-22T11:39:50.614Z,16.67
2018-03-22T11:42:18.790Z,14.97
2018-03-22T11:44:46.954Z,14.40
2018-03-22T11:47:23.711Z,18.50
2018-03-22T11:49:51.900Z,16.53
2018-03-22T11:52:20.123Z,15.67
2018-03-22T11:54:49.104Z,17.73
2018-03-22T11:57:19.258Z,17.70
2018-03-22T11:59:47.502Z,13.73
2018-03-22T12:02:15.682Z,17.47
2018-03-22T12:04:44.690Z,16.40
2018-03-22T12:07:13.799Z,20.07
2018-03-22T12:09:42.043Z,16.60
2018-03-22T12:12:10.219Z,16.73
2018-03-22T12:14:39.271Z,15.43
2018-03-22T12:17:07.462Z,15.97
2018-03-22T12:19:35.702Z,17.30
2018-03-22T12:22:03.860Z,13.30
2018-03-22T12:24:32.056Z,14.87
2018-03-22T12:27:04.455Z,17.30
2018-03-22T12:29:36.257Z,15.07
2018-03-22T12:32:05.171Z,16.87
2018-03-22T12:34:33.335Z,16.80
2018-03-22T12:37:14.303Z,17.77
2018-03-22T12:39:42.472Z,16.93
2018-03-22T12:42:11.398Z,14.57
2018-03-22T12:44:39.539Z,20.83
2018-03-22T12:47:08.673Z,17.10
2018-03-22T12:49:36.810Z,17.10
2018-03-22T12:52:04.992Z,14.00
2018-03-22T12:54:33.201Z,16.53
2018-03-22T12:57:02.294Z,16.57
2018-03-22T12:59:30.435Z,17.70
2018-03-22T13:01:58.593Z,13.60
2018-03-22T13:04:26.733Z,13.10
2018-03-22T13:07:02.970Z,14.00
2018-03-22T13:09:31.123Z,15.77
2018-03-22T13:11:59.323Z,14.87
2018-03-22T13:14:27.457Z,11.93
2018-03-22T13:16:59.373Z,13.83
2018-03-22T13:19:27.514Z,14.83
2018-03-22T13:21:55.654Z,14.57
2018-03-22T13:24:24.606Z,16.43
2018-03-22T13:27:00.851Z,15.53
2018-03-22T13:29:29.787Z,15.33
2018-03-22T13:31:58.749Z,16.13
2018-03-22T13:34:26.915Z,23.00
2018-03-22T13:36:55.994Z,15.27
2018-03-22T13:39:24.149Z,22.57
2018-03-22T13:41:52.330Z,26.23
2018-03-22T13:44:20.490Z,22.23
2018-03-22T13:47:01.863Z,20.07
2018-03-22T13:49:30.842Z,19.80
2018-03-22T13:51:59.842Z,23.80
2018-03-22T13:54:28.802Z,20.60
2018-03-22T13:57:05.049Z,17.67
2018-03-22T13:59:33.208Z,19.93
2018-03-22T14:02:01.381Z,18.67
2018-03-22T14:04:30.298Z,20.00
2018-03-22T14:07:05.952Z,19.77
2018-03-22T14:09:34.130Z,19.67
2018-03-22T14:12:02.275Z,21.53
2018-03-22T14:14:30.435Z,24.57
2018-03-22T14:16:59.557Z,19.17
2018-03-22T14:19:27.777Z,27.63
2018-03-22T14:21:56.687Z,26.53
2018-03-22T14:24:25.017Z,25.57
2018-03-22T14:26:54.156Z,24.80
2018-03-22T14:29:22.365Z,23.87
2018-03-22T14:31:50.635Z,23.23
2018-03-22T14:34:18.828Z,24.57
2018-03-22T14:36:47.075Z,24.00
2018-03-22T14:39:16.031Z,22.87
2018-03-22T14:41:44.268Z,20.73
2018-03-22T14:44:12.431Z,21.17
2018-03-22T14:46:40.626Z,23.90
2018-03-22T14:49:08.791Z,21.87
2018-03-22T14:51:36.980Z,25.67
2018-03-22T14:54:05.182Z,22.27
2018-03-22T14:56:37.799Z,26.53
2018-03-22T14:59:05.986Z,21.63
2018-03-22T15:01:34.194Z,22.97
2018-03-22T15:04:02.495Z,26.20
2018-03-22T15:06:34.286Z,25.47
2018-03-22T15:09:07.452Z,25.83
2018-03-22T15:11:35.699Z,26.17
2018-03-22T15:14:04.678Z,25.77
2018-03-22T15:16:33.688Z,27.17
2018-03-22T15:19:02.703Z,28.57
2018-03-22T15:21:30.883Z,22.17
2018-03-22T15:23:59.042Z,27.30
2018-03-22T15:26:32.285Z,29.53
2018-03-22T15:29:00.443Z,29.53
2018-03-22T15:31:28.577Z,23.30
2018-03-22T15:33:56.738Z,21.90
2018-03-22T15:36:26.592Z,28.77
2018-03-22T15:38:54.745Z,25.83
2018-03-22T15:41:22.882Z,25.27
2018-03-22T15:43:51.817Z,25.00
2018-03-22T15:46:21.039Z,25.33
2018-03-22T15:48:49.242Z,26.60
2018-03-22T15:51:17.426Z,24.53
2018-03-22T15:53:46.390Z,24.77
2018-03-22T15:56:18.138Z,20.47
2018-03-22T15:58:46.291Z,27.73
2018-03-22T16:01:14.519Z,26.97
2018-03-22T16:03:42.704Z,29.00
2018-03-22T16:06:14.817Z,30.93
2018-03-22T16:08:42.954Z,18.60
2018-03-22T16:11:11.121Z,24.20
2018-03-22T16:13:40.027Z,22.37
2018-03-22T16:16:09.350Z,24.97
2018-03-22T16:18:37.486Z,31.37
2018-03-22T16:21:06.406Z,29.93
2018-03-22T16:23:34.551Z,29.20
2018-03-22T16:26:02.718Z,25.83
2018-03-22T16:28:30.871Z,25.67
2018-03-22T16:30:59.030Z,23.27
2018-03-22T16:33:27.178Z,23.97
2018-03-22T16:35:56.319Z,29.07
2018-03-22T16:38:25.223Z,24.47
2018-03-22T16:40:54.146Z,26.57
2018-03-22T16:43:22.296Z,21.43
2018-03-22T16:45:54.959Z,26.73
2018-03-22T16:48:23.867Z,23.97
2018-03-22T16:50:52.047Z,31.17
2018-03-22T16:53:20.206Z,29.07
2018-03-22T16:55:58.688Z,31.17
2018-03-22T16:58:26.827Z,26.93
2018-03-22T17:00:54.996Z,27.33
2018-03-22T17:03:23.127Z,22.03
2018-03-22T17:05:52.059Z,24.00
2018-03-22T17:08:20.208Z,22.83
2018-03-22T17:10:48.392Z,26.77
2018-03-22T17:13:16.551Z,26.17
2018-03-22T17:15:46.424Z,28.77
2018-03-22T17:18:14.583Z,22.93
2018-03-22T17:20:42.955Z,23.20
2018-03-22T17:23:11.143Z,26.37
2018-03-22T17:25:39.287Z,26.10
2018-03-22T17:28:07.446Z,24.77
2018-03-22T17:30:35.643Z,27.23
2018-03-22T17:33:03.838Z,24.63
2018-03-22T17:35:31.984Z,30.40
2018-03-22T17:38:00.138Z,26.07
2018-03-22T17:40:28.282Z,27.27
2018-03-22T17:42:57.221Z,24.00
2018-03-22T17:45:25.374Z,29.50
2018-03-22T17:47:53.526Z,24.80
2018-03-22T17:50:22.447Z,26.77
2018-03-22T17:52:50.664Z,27.60
2018-03-22T17:55:18.867Z,27.73
2018-03-22T17:57:52.087Z,27.73
2018-03-22T18:00:20.291Z,27.33
2018-03-22T18:02:48.564Z,34.43
2018-03-22T18:05:16.788Z,29.07
2018-03-22T18:07:49.886Z,25.70
2018-03-22T18:10:18.088Z,26.10
2018-03-22T18:12:46.222Z,29.37
2018-03-22T18:15:14.370Z,25.67
2018-03-22T18:17:43.491Z,28.07
2018-03-22T18:20:12.477Z,28.03
2018-03-22T18:22:41.439Z,28.47
2018-03-22T18:25:09.630Z,29.77
2018-03-22T18:27:38.760Z,30.47
2018-03-22T18:30:06.975Z,24.40
2018-03-22T18:32:35.193Z,25.90
2018-03-22T18:35:04.204Z,26.60
2018-03-22T18:37:33.440Z,27.40
2018-03-22T18:40:01.655Z,27.17
2018-03-22T18:42:30.699Z,28.53
2018-03-22T18:44:58.840Z,29.37
2018-03-22T18:47:27.075Z,25.70
2018-03-22T18:49:55.287Z,25.43
2018-03-22T18:52:24.280Z,24.70
2018-03-22T18:54:52.523Z,27.80
2018-03-22T18:57:25.444Z,28.53
2018-03-22T18:59:53.650Z,27.80
2018-03-22T19:02:21.865Z,25.73
2018-03-22T19:04:50.038Z,27.20
2018-03-22T19:07:18.304Z,24.70
2018-03-22T19:09:46.458Z,28.20
2018-03-22T19:12:14.670Z,27.20
2018-03-22T19:14:43.579Z,29.83
2018-03-22T19:17:11.738Z,32.77
2018-03-22T19:19:40.646Z,36.10
2018-03-22T19:22:08.819Z,32.40
2018-03-22T19:24:36.962Z,31.63
2018-03-22T19:27:19.848Z,30.50
2018-03-22T19:29:47.987Z,26.97
2018-03-22T19:32:16.155Z,31.07
2018-03-22T19:34:44.314Z,30.97
2018-03-22T19:37:17.134Z,30.33
2018-03-22T19:39:45.282Z,28.67
2018-03-22T19:42:13.511Z,28.07
2018-03-22T19:44:41.654Z,29.50
2018-03-22T19:47:26.854Z,32.60
2018-03-22T19:49:55.022Z,34.87
2018-03-22T19:52:23.179Z,31.43
2018-03-22T19:54:51.350Z,43.07
2018-03-22T19:57:19.516Z,37.07
2018-03-22T19:59:47.683Z,36.87
2018-03-22T20:02:15.868Z,37.10
2018-03-22T20:04:44.099Z,36.83
2018-03-22T20:07:14.077Z,42.87
2018-03-22T20:09:42.303Z,45.60
2018-03-22T20:12:11.272Z,49.70
2018-03-22T20:14:48.614Z,45.50
2018-03-22T20:17:16.766Z,53.27
2018-03-22T20:19:44.938Z,48.53
2018-03-22T20:22:13.139Z,45.53
2018-03-22T20:24:41.351Z,44.53
2018-03-22T20:27:16.983Z,43.00
2018-03-22T20:29:45.244Z,42.33
2018-03-22T20:32:13.431Z,41.67
2018-03-22T20:34:41.679Z,45.93
2018-03-22T20:37:09.968Z,45.27
2018-03-22T20:39:38.272Z,45.30
2018-03-22T20:42:06.470Z,44.73
2018-03-22T20:44:35.463Z,50.97
2018-03-22T20:47:22.227Z,48.93
2018-03-22T20:49:50.457Z,46.50
2018-03-22T20:52:18.674Z,41.93
2018-03-22T20:54:46.942Z,46.13
2018-03-22T20:57:18.828Z,48.33
2018-03-22T20:59:47.088Z,50.23
2018-03-22T21:02:15.282Z,46.47
2018-03-22T21:04:43.467Z,47.37
2018-03-22T21:07:14.780Z,44.90
2018-03-22T21:09:42.965Z,45.63
2018-03-22T21:12:11.196Z,50.73
2018-03-22T21:14:39.418Z,45.10
2018-03-22T21:17:39.903Z,48.70
2018-03-22T21:20:08.118Z,44.37
2018-03-22T21:22:36.396Z,44.93
2018-03-22T21:25:12.208Z,45.93
2018-03-22T21:27:40.458Z,42.07
2018-03-22T21:30:09.428Z,45.30
2018-03-22T21:32:37.677Z,48.77
2018-03-22T21:35:05.904Z,41.50
2018-03-22T21:37:38.010Z,43.63
2018-03-22T21:40:06.208Z,42.77
2018-03-22T21:42:34.508Z,44.93
2018-03-22T21:45:02.723Z,39.10
2018-03-22T21:47:43.544Z,38.70
2018-03-22T21:50:11.731Z,43.37
2018-03-22T21:52:55.018Z,38.43
2018-03-22T21:55:23.207Z,39.57
2018-03-22T21:57:58.820Z,40.40
2018-03-22T22:00:27.039Z,39.67
2018-03-22T22:02:55.284Z,37.23
2018-03-22T22:05:23.473Z,38.60
2018-03-22T22:07:51.757Z,38.50
2018-03-22T22:10:19.979Z,38.13
2018-03-22T22:12:48.227Z,37.53
2018-03-22T22:15:17.248Z,36.20
2018-03-22T22:17:45.462Z,40.07
2018-03-22T22:20:13.737Z,36.90
2018-03-22T22:22:42.077Z,35.60
2018-03-22T22:25:10.311Z,33.60
2018-03-22T22:28:00.636Z,35.30
2018-03-22T22:30:28.841Z,36.37
2018-03-22T22:32:57.106Z,37.73
2018-03-22T22:35:25.372Z,34.83
2018-03-22T22:37:54.618Z,38.40
2018-03-22T22:40:22.900Z,35.67
2018-03-22T22:42:51.179Z,38.70
2018-03-22T22:45:19.431Z,35.27
2018-03-22T22:47:54.867Z,37.97
2018-03-22T22:50:23.077Z,36.13
2018-03-22T22:52:51.325Z,36.37
2018-03-22T22:55:19.576Z,38.97
2018-03-22T22:57:48.772Z,38.33
2018-03-22T23:00:16.948Z,41.07
2018-03-22T23:02:45.148Z,35.07
2018-03-22T23:05:13.356Z,37.77
2018-03-22T23:07:41.619Z,37.63
2018-03-22T23:10:09.798Z,35.30
2018-03-22T23:12:38.066Z,37.23
2018-03-22T23:15:06.298Z,32.50
2018-03-22T23:17:37.976Z,32.90
2018-03-22T23:20:06.221Z,36.37
2018-03-22T23:22:34.456Z,36.30
2018-03-22T23:25:02.728Z,35.13
2018-03-22T23:27:36.115Z,33.53
2018-03-22T23:30:04.344Z,33.83
2018-03-22T23:32:32.544Z,33.30
2018-03-22T23:35:00.789Z,33.27
2018-03-22T23:37:29.946Z,32.00
2018-03-22T23:39:58.211Z,30.23
2018-03-22T23:42:26.426Z,27.63
2018-03-22T23:44:54.662Z,26.90
2018-03-22T23:47:37.593Z,25.93
2018-03-22T23:50:06.604Z,29.00
2018-03-22T23:52:35.627Z,31.70
2018-03-22T23:55:03.866Z,29.13
2018-03-22T23:57:43.094Z,29.17
